sensor_id;sensor_type;location;lat;lon;timestamp;temperature;humidity
1417;DHT22;703;51.162;13.574;2022-07-06T00:02:23;15.00;99.90
1417;DHT22;703;51.162;13.574;2022-07-06T00:04:49;15.10;99.90
1417;DHT22;703;51.162;13.574;2022-07-06T00:07:14;15.20;99.90
1417;DHT22;703;51.162;13.574;2022-07-06T00:09:41;15.30;99.90
1417;DHT22;703;51.162;13.574;2022-07-06T00:12:07;15.00;99.90
1417;DHT22;703;51.162;13.574;2022-07-06T00:14:32;14.90;99.90
1417;DHT22;703;51.162;13.574;2022-07-06T00:16:58;15.00;99.90
1417;DHT22;703;51.162;13.574;2022-07-06T00:19:23;14.90;99.90
1417;DHT22;703;51.162;13.574;2022-07-06T00:21:49;14.90;99.90
1417;DHT22;703;51.162;13.574;2022-07-06T00:24:14;14.90;99.90
1417;DHT22;703;51.162;13.574;2022-07-06T00:26:43;14.90;99.90
1417;DHT22;703;51.162;13.574;2022-07-06T00:29:09;14.70;99.90
1417;DHT22;703;51.162;13.574;2022-07-06T00:31:34;14.70;99.90
1417;DHT22;703;51.162;13.574;2022-07-06T00:36:26;14.60;99.90
1417;DHT22;703;51.162;13.574;2022-07-06T00:41:18;14.80;99.90
1417;DHT22;703;51.162;13.574;2022-07-06T00:43:52;14.50;99.90
1417;DHT22;703;51.162;13.574;2022-07-06T00:46:26;14.70;99.90
1417;DHT22;703;51.162;13.574;2022-07-06T00:48:52;14.70;99.90
1417;DHT22;703;51.162;13.574;2022-07-06T00:51:18;14.70;99.90
1417;DHT22;703;51.162;13.574;2022-07-06T00:53:44;14.60;99.90
1417;DHT22;703;51.162;13.574;2022-07-06T00:56:10;14.60;99.90
1417;DHT22;703;51.162;13.574;2022-07-06T00:58:36;14.70;99.90
1417;DHT22;703;51.162;13.574;2022-07-06T01:01:01;14.60;99.90
1417;DHT22;703;51.162;13.574;2022-07-06T01:05:54;14.60;99.90
1417;DHT22;703;51.162;13.574;2022-07-06T01:08:19;14.60;99.90
1417;DHT22;703;51.162;13.574;2022-07-06T01:10:45;14.60;99.90
1417;DHT22;703;51.162;13.574;2022-07-06T01:13:11;14.50;99.90
1417;DHT22;703;51.162;13.574;2022-07-06T01:15:37;14.50;99.90
1417;DHT22;703;51.162;13.574;2022-07-06T01:18:04;14.50;99.90
1417;DHT22;703;51.162;13.574;2022-07-06T01:20:30;14.60;99.90
1417;DHT22;703;51.162;13.574;2022-07-06T01:22:59;14.60;99.90
1417;DHT22;703;51.162;13.574;2022-07-06T01:25:25;14.60;99.90
1417;DHT22;703;51.162;13.574;2022-07-06T01:27:50;14.60;99.90
1417;DHT22;703;51.162;13.574;2022-07-06T01:30:18;14.60;99.90
1417;DHT22;703;51.162;13.574;2022-07-06T01:32:44;14.40;99.90
1417;DHT22;703;51.162;13.574;2022-07-06T01:35:14;14.50;99.90
1417;DHT22;703;51.162;13.574;2022-07-06T01:37:40;14.50;99.90
1417;DHT22;703;51.162;13.574;2022-07-06T01:40:08;14.60;99.90
1417;DHT22;703;51.162;13.574;2022-07-06T01:42:34;14.50;99.90
1417;DHT22;703;51.162;13.574;2022-07-06T01:45:00;14.40;99.90
1417;DHT22;703;51.162;13.574;2022-07-06T01:47:25;14.30;99.90
1417;DHT22;703;51.162;13.574;2022-07-06T01:49:51;14.20;99.90
1417;DHT22;703;51.162;13.574;2022-07-06T01:52:17;14.30;99.90
1417;DHT22;703;51.162;13.574;2022-07-06T01:54:43;14.30;99.90
1417;DHT22;703;51.162;13.574;2022-07-06T01:57:09;14.30;99.90
1417;DHT22;703;51.162;13.574;2022-07-06T01:59:34;14.40;99.90
1417;DHT22;703;51.162;13.574;2022-07-06T02:02:00;14.40;99.90
1417;DHT22;703;51.162;13.574;2022-07-06T02:04:26;14.40;99.90
1417;DHT22;703;51.162;13.574;2022-07-06T02:06:52;14.50;99.90
1417;DHT22;703;51.162;13.574;2022-07-06T02:09:17;14.40;99.90
1417;DHT22;703;51.162;13.574;2022-07-06T02:11:43;14.40;99.90
1417;DHT22;703;51.162;13.574;2022-07-06T02:14:09;14.50;99.90
1417;DHT22;703;51.162;13.574;2022-07-06T02:16:35;14.40;99.90
1417;DHT22;703;51.162;13.574;2022-07-06T02:19:01;14.40;99.90
1417;DHT22;703;51.162;13.574;2022-07-06T02:21:26;14.40;99.90
1417;DHT22;703;51.162;13.574;2022-07-06T02:23:52;14.50;99.90
1417;DHT22;703;51.162;13.574;2022-07-06T02:26:17;13.90;99.90
1417;DHT22;703;51.162;13.574;2022-07-06T02:28:43;14.40;99.90
1417;DHT22;703;51.162;13.574;2022-07-06T02:31:10;14.40;99.90
1417;DHT22;703;51.162;13.574;2022-07-06T02:33:38;14.30;99.90
1417;DHT22;703;51.162;13.574;2022-07-06T02:36:04;14.30;99.90
1417;DHT22;703;51.162;13.574;2022-07-06T02:38:29;14.20;99.90
1417;DHT22;703;51.162;13.574;2022-07-06T02:40:55;14.10;99.90
1417;DHT22;703;51.162;13.574;2022-07-06T02:43:20;13.90;99.90
1417;DHT22;703;51.162;13.574;2022-07-06T02:45:46;13.80;99.90
1417;DHT22;703;51.162;13.574;2022-07-06T02:48:11;14.00;99.90
1417;DHT22;703;51.162;13.574;2022-07-06T02:50:36;13.90;99.90
1417;DHT22;703;51.162;13.574;2022-07-06T02:53:02;13.90;99.90
1417;DHT22;703;51.162;13.574;2022-07-06T02:55:28;14.50;99.90
1417;DHT22;703;51.162;13.574;2022-07-06T02:57:53;13.90;99.90
1417;DHT22;703;51.162;13.574;2022-07-06T03:00:18;13.80;99.90
1417;DHT22;703;51.162;13.574;2022-07-06T03:02:44;13.80;99.90
1417;DHT22;703;51.162;13.574;2022-07-06T03:05:09;13.70;99.90
1417;DHT22;703;51.162;13.574;2022-07-06T03:07:35;13.70;99.90
1417;DHT22;703;51.162;13.574;2022-07-06T03:10:00;13.70;99.90
1417;DHT22;703;51.162;13.574;2022-07-06T03:12:26;13.70;99.90
1417;DHT22;703;51.162;13.574;2022-07-06T03:14:51;13.60;99.90
1417;DHT22;703;51.162;13.574;2022-07-06T03:17:17;13.60;99.90
1417;DHT22;703;51.162;13.574;2022-07-06T03:19:42;13.60;99.90
1417;DHT22;703;51.162;13.574;2022-07-06T03:22:08;13.60;99.90
1417;DHT22;703;51.162;13.574;2022-07-06T03:24:33;13.50;99.90
1417;DHT22;703;51.162;13.574;2022-07-06T03:26:59;13.50;99.90
1417;DHT22;703;51.162;13.574;2022-07-06T03:29:24;13.50;99.90
1417;DHT22;703;51.162;13.574;2022-07-06T03:31:50;13.40;99.90
1417;DHT22;703;51.162;13.574;2022-07-06T03:34:16;13.70;99.90
1417;DHT22;703;51.162;13.574;2022-07-06T03:36:41;13.60;99.90
1417;DHT22;703;51.162;13.574;2022-07-06T03:39:07;13.60;99.90
1417;DHT22;703;51.162;13.574;2022-07-06T03:41:32;13.50;99.90
1417;DHT22;703;51.162;13.574;2022-07-06T03:43:58;13.50;99.90
1417;DHT22;703;51.162;13.574;2022-07-06T03:46:24;13.40;99.90
1417;DHT22;703;51.162;13.574;2022-07-06T03:48:50;13.60;99.90
1417;DHT22;703;51.162;13.574;2022-07-06T03:53:41;13.70;99.90
1417;DHT22;703;51.162;13.574;2022-07-06T03:56:11;13.70;99.90
1417;DHT22;703;51.162;13.574;2022-07-06T03:58:58;13.70;99.90
1417;DHT22;703;51.162;13.574;2022-07-06T04:01:46;13.60;99.90
1417;DHT22;703;51.162;13.574;2022-07-06T04:04:20;13.70;99.90
1417;DHT22;703;51.162;13.574;2022-07-06T04:06:56;13.70;99.90
1417;DHT22;703;51.162;13.574;2022-07-06T04:09:22;13.70;99.90
1417;DHT22;703;51.162;13.574;2022-07-06T04:12:02;13.70;99.90
1417;DHT22;703;51.162;13.574;2022-07-06T04:17:49;13.70;99.90
1417;DHT22;703;51.162;13.574;2022-07-06T04:20:22;13.70;99.90
1417;DHT22;703;51.162;13.574;2022-07-06T04:23:19;13.80;99.90
1417;DHT22;703;51.162;13.574;2022-07-06T04:25:45;13.90;99.90
1417;DHT22;703;51.162;13.574;2022-07-06T04:28:10;13.80;99.90
1417;DHT22;703;51.162;13.574;2022-07-06T04:30:36;13.80;99.90
1417;DHT22;703;51.162;13.574;2022-07-06T04:33:01;13.90;99.90
1417;DHT22;703;51.162;13.574;2022-07-06T04:35:27;13.90;99.90
1417;DHT22;703;51.162;13.574;2022-07-06T04:37:52;13.80;99.90
1417;DHT22;703;51.162;13.574;2022-07-06T04:40:18;13.80;99.90
1417;DHT22;703;51.162;13.574;2022-07-06T04:42:43;14.10;99.90
1417;DHT22;703;51.162;13.574;2022-07-06T04:45:09;13.80;99.90
1417;DHT22;703;51.162;13.574;2022-07-06T04:47:35;13.80;99.90
1417;DHT22;703;51.162;13.574;2022-07-06T04:50:01;13.80;99.90
1417;DHT22;703;51.162;13.574;2022-07-06T04:52:27;13.80;99.90
1417;DHT22;703;51.162;13.574;2022-07-06T04:54:54;13.90;99.90
1417;DHT22;703;51.162;13.574;2022-07-06T04:57:20;15.10;99.90
1417;DHT22;703;51.162;13.574;2022-07-06T04:59:46;14.10;99.90
1417;DHT22;703;51.162;13.574;2022-07-06T05:02:11;14.00;99.90
1417;DHT22;703;51.162;13.574;2022-07-06T05:04:37;14.10;99.90
1417;DHT22;703;51.162;13.574;2022-07-06T05:07:03;14.10;99.90
1417;DHT22;703;51.162;13.574;2022-07-06T05:09:28;14.10;99.90
1417;DHT22;703;51.162;13.574;2022-07-06T05:11:54;14.10;99.90
1417;DHT22;703;51.162;13.574;2022-07-06T05:14:19;14.20;99.90
1417;DHT22;703;51.162;13.574;2022-07-06T05:16:45;14.20;99.90
1417;DHT22;703;51.162;13.574;2022-07-06T05:19:10;14.30;99.90
1417;DHT22;703;51.162;13.574;2022-07-06T05:21:36;14.30;99.90
1417;DHT22;703;51.162;13.574;2022-07-06T05:24:01;14.30;99.90
1417;DHT22;703;51.162;13.574;2022-07-06T05:26:27;14.50;99.90
1417;DHT22;703;51.162;13.574;2022-07-06T05:28:52;15.30;99.90
1417;DHT22;703;51.162;13.574;2022-07-06T05:31:18;14.60;99.90
1417;DHT22;703;51.162;13.574;2022-07-06T05:33:43;14.70;99.90
1417;DHT22;703;51.162;13.574;2022-07-06T05:36:09;14.60;99.90
1417;DHT22;703;51.162;13.574;2022-07-06T05:38:35;14.70;99.90
1417;DHT22;703;51.162;13.574;2022-07-06T05:41:00;14.80;99.90
1417;DHT22;703;51.162;13.574;2022-07-06T05:43:26;14.90;99.90
1417;DHT22;703;51.162;13.574;2022-07-06T05:45:51;14.90;99.90
1417;DHT22;703;51.162;13.574;2022-07-06T05:48:17;15.00;99.90
1417;DHT22;703;51.162;13.574;2022-07-06T05:51:01;15.00;99.90
1417;DHT22;703;51.162;13.574;2022-07-06T05:53:27;15.40;99.90
1417;DHT22;703;51.162;13.574;2022-07-06T05:55:52;15.40;99.90
1417;DHT22;703;51.162;13.574;2022-07-06T05:58:18;15.50;99.90
1417;DHT22;703;51.162;13.574;2022-07-06T06:00:43;15.50;99.90
1417;DHT22;703;51.162;13.574;2022-07-06T06:03:09;15.20;99.90
1417;DHT22;703;51.162;13.574;2022-07-06T06:05:35;15.50;99.90
1417;DHT22;703;51.162;13.574;2022-07-06T06:08:00;15.40;99.90
1417;DHT22;703;51.162;13.574;2022-07-06T06:10:26;15.70;99.90
1417;DHT22;703;51.162;13.574;2022-07-06T06:12:52;15.90;99.90
1417;DHT22;703;51.162;13.574;2022-07-06T06:15:18;16.00;99.90
1417;DHT22;703;51.162;13.574;2022-07-06T06:17:44;16.10;99.90
1417;DHT22;703;51.162;13.574;2022-07-06T06:20:12;16.30;99.90
1417;DHT22;703;51.162;13.574;2022-07-06T06:22:58;16.60;99.90
1417;DHT22;703;51.162;13.574;2022-07-06T06:25:29;16.60;99.90
1417;DHT22;703;51.162;13.574;2022-07-06T06:27:55;16.60;99.90
1417;DHT22;703;51.162;13.574;2022-07-06T06:30:21;16.30;99.90
1417;DHT22;703;51.162;13.574;2022-07-06T06:32:46;18.70;99.90
1417;DHT22;703;51.162;13.574;2022-07-06T06:35:12;16.60;99.90
1417;DHT22;703;51.162;13.574;2022-07-06T06:37:38;16.80;99.90
1417;DHT22;703;51.162;13.574;2022-07-06T06:40:04;16.90;99.90
1417;DHT22;703;51.162;13.574;2022-07-06T06:42:30;17.10;99.90
1417;DHT22;703;51.162;13.574;2022-07-06T06:44:56;17.00;99.90
1417;DHT22;703;51.162;13.574;2022-07-06T06:47:21;17.10;99.90
1417;DHT22;703;51.162;13.574;2022-07-06T06:49:47;17.10;99.90
1417;DHT22;703;51.162;13.574;2022-07-06T06:52:13;17.20;99.90
1417;DHT22;703;51.162;13.574;2022-07-06T06:54:38;17.50;99.90
1417;DHT22;703;51.162;13.574;2022-07-06T06:57:04;17.50;99.90
1417;DHT22;703;51.162;13.574;2022-07-06T06:59:30;17.30;99.90
1417;DHT22;703;51.162;13.574;2022-07-06T07:01:55;17.10;99.90
1417;DHT22;703;51.162;13.574;2022-07-06T07:04:21;20.00;99.90
1417;DHT22;703;51.162;13.574;2022-07-06T07:06:46;17.50;99.90
1417;DHT22;703;51.162;13.574;2022-07-06T07:09:12;17.60;99.90
1417;DHT22;703;51.162;13.574;2022-07-06T07:11:37;17.70;99.90
1417;DHT22;703;51.162;13.574;2022-07-06T07:14:03;17.80;99.90
1417;DHT22;703;51.162;13.574;2022-07-06T07:16:28;17.80;99.90
1417;DHT22;703;51.162;13.574;2022-07-06T07:18:54;17.80;99.90
1417;DHT22;703;51.162;13.574;2022-07-06T07:21:19;17.80;99.90
1417;DHT22;703;51.162;13.574;2022-07-06T07:23:45;17.90;99.90
1417;DHT22;703;51.162;13.574;2022-07-06T07:26:10;17.90;99.90
1417;DHT22;703;51.162;13.574;2022-07-06T07:28:36;18.00;99.90
1417;DHT22;703;51.162;13.574;2022-07-06T07:31:01;18.00;99.90
1417;DHT22;703;51.162;13.574;2022-07-06T07:33:27;18.10;99.90
1417;DHT22;703;51.162;13.574;2022-07-06T07:35:52;19.80;99.90
1417;DHT22;703;51.162;13.574;2022-07-06T07:38:18;18.00;99.90
1417;DHT22;703;51.162;13.574;2022-07-06T07:40:43;18.10;99.90
1417;DHT22;703;51.162;13.574;2022-07-06T07:43:09;18.10;99.90
1417;DHT22;703;51.162;13.574;2022-07-06T07:45:34;18.10;99.90
1417;DHT22;703;51.162;13.574;2022-07-06T07:48:00;18.10;99.90
1417;DHT22;703;51.162;13.574;2022-07-06T07:50:25;18.10;99.90
1417;DHT22;703;51.162;13.574;2022-07-06T07:52:52;18.10;99.90
1417;DHT22;703;51.162;13.574;2022-07-06T07:55:18;18.10;99.90
1417;DHT22;703;51.162;13.574;2022-07-06T07:57:43;18.10;99.90
1417;DHT22;703;51.162;13.574;2022-07-06T08:00:09;18.10;99.90
1417;DHT22;703;51.162;13.574;2022-07-06T08:02:35;18.20;99.90
1417;DHT22;703;51.162;13.574;2022-07-06T08:05:01;18.30;99.90
1417;DHT22;703;51.162;13.574;2022-07-06T08:07:27;18.40;99.90
1417;DHT22;703;51.162;13.574;2022-07-06T08:09:52;18.60;99.90
1417;DHT22;703;51.162;13.574;2022-07-06T08:12:18;18.60;99.90
1417;DHT22;703;51.162;13.574;2022-07-06T08:14:44;18.10;99.90
1417;DHT22;703;51.162;13.574;2022-07-06T08:17:10;18.10;99.90
1417;DHT22;703;51.162;13.574;2022-07-06T08:19:35;18.10;99.90
1417;DHT22;703;51.162;13.574;2022-07-06T08:22:01;18.40;99.90
1417;DHT22;703;51.162;13.574;2022-07-06T08:24:35;19.10;99.90
1417;DHT22;703;51.162;13.574;2022-07-06T08:27:00;19.10;99.90
1417;DHT22;703;51.162;13.574;2022-07-06T08:29:26;19.00;99.90
1417;DHT22;703;51.162;13.574;2022-07-06T08:31:52;18.40;99.90
1417;DHT22;703;51.162;13.574;2022-07-06T08:34:17;19.40;99.90
1417;DHT22;703;51.162;13.574;2022-07-06T08:36:43;22.50;99.90
1417;DHT22;703;51.162;13.574;2022-07-06T08:39:08;19.50;99.90
1417;DHT22;703;51.162;13.574;2022-07-06T08:41:34;19.70;99.90
1417;DHT22;703;51.162;13.574;2022-07-06T08:44:01;20.10;99.90
1417;DHT22;703;51.162;13.574;2022-07-06T08:46:28;21.50;99.90
1417;DHT22;703;51.162;13.574;2022-07-06T08:48:55;19.90;99.90
1417;DHT22;703;51.162;13.574;2022-07-06T08:51:22;19.80;99.90
1417;DHT22;703;51.162;13.574;2022-07-06T08:53:49;19.20;99.90
1417;DHT22;703;51.162;13.574;2022-07-06T08:56:16;19.40;99.90
1417;DHT22;703;51.162;13.574;2022-07-06T08:58:41;19.20;99.90
1417;DHT22;703;51.162;13.574;2022-07-06T09:01:09;19.20;99.90
1417;DHT22;703;51.162;13.574;2022-07-06T09:03:35;19.90;99.90
1417;DHT22;703;51.162;13.574;2022-07-06T09:06:02;19.80;99.90
1417;DHT22;703;51.162;13.574;2022-07-06T09:08:29;20.90;99.90
1417;DHT22;703;51.162;13.574;2022-07-06T09:10:56;19.90;99.90
1417;DHT22;703;51.162;13.574;2022-07-06T09:13:21;20.30;99.90
1417;DHT22;703;51.162;13.574;2022-07-06T09:15:47;20.50;99.90
1417;DHT22;703;51.162;13.574;2022-07-06T09:18:13;20.70;99.90
1417;DHT22;703;51.162;13.574;2022-07-06T09:20:40;21.10;99.90
1417;DHT22;703;51.162;13.574;2022-07-06T09:23:06;21.40;99.90
1417;DHT22;703;51.162;13.574;2022-07-06T09:25:34;21.20;99.90
1417;DHT22;703;51.162;13.574;2022-07-06T09:28:01;20.80;99.90
1417;DHT22;703;51.162;13.574;2022-07-06T09:30:28;18.30;99.90
1417;DHT22;703;51.162;13.574;2022-07-06T09:32:56;20.60;99.90
1417;DHT22;703;51.162;13.574;2022-07-06T09:38:10;20.70;99.90
1417;DHT22;703;51.162;13.574;2022-07-06T09:40:41;21.40;99.90
1417;DHT22;703;51.162;13.574;2022-07-06T09:43:22;21.50;99.90
1417;DHT22;703;51.162;13.574;2022-07-06T09:45:56;21.30;99.90
1417;DHT22;703;51.162;13.574;2022-07-06T09:48:23;20.70;99.90
1417;DHT22;703;51.162;13.574;2022-07-06T09:51:22;20.50;99.90
1417;DHT22;703;51.162;13.574;2022-07-06T09:53:41;20.50;99.90
1417;DHT22;703;51.162;13.574;2022-07-06T09:56:07;20.60;99.90
1417;DHT22;703;51.162;13.574;2022-07-06T09:58:38;21.00;99.90
1417;DHT22;703;51.162;13.574;2022-07-06T10:01:03;20.80;99.90
1417;DHT22;703;51.162;13.574;2022-07-06T10:03:30;21.10;99.90
1417;DHT22;703;51.162;13.574;2022-07-06T10:05:56;22.00;99.90
1417;DHT22;703;51.162;13.574;2022-07-06T10:08:22;21.90;99.90
1417;DHT22;703;51.162;13.574;2022-07-06T10:10:48;21.20;99.90
1417;DHT22;703;51.162;13.574;2022-07-06T10:13:20;21.30;99.90
1417;DHT22;703;51.162;13.574;2022-07-06T10:15:46;20.90;99.90
1417;DHT22;703;51.162;13.574;2022-07-06T10:18:12;21.10;99.90
1417;DHT22;703;51.162;13.574;2022-07-06T10:20:39;21.80;99.90
1417;DHT22;703;51.162;13.574;2022-07-06T10:23:08;22.60;99.90
1417;DHT22;703;51.162;13.574;2022-07-06T10:25:34;22.00;99.90
1417;DHT22;703;51.162;13.574;2022-07-06T10:28:00;21.70;99.90
1417;DHT22;703;51.162;13.574;2022-07-06T10:30:27;21.00;99.90
1417;DHT22;703;51.162;13.574;2022-07-06T10:32:56;21.00;99.90
1417;DHT22;703;51.162;13.574;2022-07-06T10:35:22;21.80;99.90
1417;DHT22;703;51.162;13.574;2022-07-06T10:38:07;22.20;99.90
1417;DHT22;703;51.162;13.574;2022-07-06T10:40:34;22.30;99.90
1417;DHT22;703;51.162;13.574;2022-07-06T10:43:18;22.30;99.90
1417;DHT22;703;51.162;13.574;2022-07-06T10:50:39;22.30;99.90
1417;DHT22;703;51.162;13.574;2022-07-06T10:55:46;23.10;99.90
1417;DHT22;703;51.162;13.574;2022-07-06T11:01:28;23.10;99.90
1417;DHT22;703;51.162;13.574;2022-07-06T11:06:24;22.30;99.90
1417;DHT22;703;51.162;13.574;2022-07-06T11:11:22;21.80;99.90
1417;DHT22;703;51.162;13.574;2022-07-06T11:13:51;22.10;99.90
1417;DHT22;703;51.162;13.574;2022-07-06T11:16:17;21.90;99.90
1417;DHT22;703;51.162;13.574;2022-07-06T11:18:48;22.10;99.90
1417;DHT22;703;51.162;13.574;2022-07-06T11:21:22;22.00;99.90
1417;DHT22;703;51.162;13.574;2022-07-06T11:23:49;21.60;99.90
1417;DHT22;703;51.162;13.574;2022-07-06T11:26:16;22.00;99.90
1417;DHT22;703;51.162;13.574;2022-07-06T11:28:45;22.90;99.90
1417;DHT22;703;51.162;13.574;2022-07-06T11:31:11;23.00;99.90
1417;DHT22;703;51.162;13.574;2022-07-06T11:33:37;23.40;99.90
1417;DHT22;703;51.162;13.574;2022-07-06T11:36:13;23.60;99.90
1417;DHT22;703;51.162;13.574;2022-07-06T11:38:39;23.40;99.90
1417;DHT22;703;51.162;13.574;2022-07-06T11:41:05;23.70;99.90
1417;DHT22;703;51.162;13.574;2022-07-06T11:43:30;23.60;99.90
1417;DHT22;703;51.162;13.574;2022-07-06T11:45:57;23.50;99.90
1417;DHT22;703;51.162;13.574;2022-07-06T11:48:23;22.80;99.90
1417;DHT22;703;51.162;13.574;2022-07-06T11:51:05;23.00;99.90
1417;DHT22;703;51.162;13.574;2022-07-06T11:53:30;21.70;99.90
1417;DHT22;703;51.162;13.574;2022-07-06T11:56:02;21.70;99.90
1417;DHT22;703;51.162;13.574;2022-07-06T11:58:30;22.50;99.90
1417;DHT22;703;51.162;13.574;2022-07-06T12:01:07;23.40;99.90
1417;DHT22;703;51.162;13.574;2022-07-06T12:03:34;23.60;99.90
1417;DHT22;703;51.162;13.574;2022-07-06T12:06:05;23.90;99.90
1417;DHT22;703;51.162;13.574;2022-07-06T12:08:30;23.70;99.90
1417;DHT22;703;51.162;13.574;2022-07-06T12:10:56;23.90;99.90
1417;DHT22;703;51.162;13.574;2022-07-06T12:13:23;24.30;99.90
1417;DHT22;703;51.162;13.574;2022-07-06T12:15:49;24.40;99.90
1417;DHT22;703;51.162;13.574;2022-07-06T12:18:16;23.10;99.90
1417;DHT22;703;51.162;13.574;2022-07-06T12:23:08;22.70;99.90
1417;DHT22;703;51.162;13.574;2022-07-06T12:25:35;22.90;99.90
1417;DHT22;703;51.162;13.574;2022-07-06T12:28:01;23.50;99.90
1417;DHT22;703;51.162;13.574;2022-07-06T12:30:27;23.70;99.90
1417;DHT22;703;51.162;13.574;2022-07-06T12:33:15;23.80;99.90
1417;DHT22;703;51.162;13.574;2022-07-06T12:35:41;24.20;99.90
1417;DHT22;703;51.162;13.574;2022-07-06T12:38:07;23.90;99.90
1417;DHT22;703;51.162;13.574;2022-07-06T12:40:35;24.70;99.90
1417;DHT22;703;51.162;13.574;2022-07-06T12:43:02;24.50;99.90
1417;DHT22;703;51.162;13.574;2022-07-06T12:45:28;23.40;99.90
1417;DHT22;703;51.162;13.574;2022-07-06T12:47:58;23.90;99.90
1417;DHT22;703;51.162;13.574;2022-07-06T12:50:34;24.30;99.90
1417;DHT22;703;51.162;13.574;2022-07-06T12:53:00;24.40;99.90
1417;DHT22;703;51.162;13.574;2022-07-06T12:55:28;23.90;99.90
1417;DHT22;703;51.162;13.574;2022-07-06T12:57:54;24.10;99.90
1417;DHT22;703;51.162;13.574;2022-07-06T13:00:21;24.70;99.90
1417;DHT22;703;51.162;13.574;2022-07-06T13:02:52;24.00;99.90
1417;DHT22;703;51.162;13.574;2022-07-06T13:05:23;24.00;99.90
1417;DHT22;703;51.162;13.574;2022-07-06T13:07:57;24.00;99.90
1417;DHT22;703;51.162;13.574;2022-07-06T13:10:23;23.40;99.90
1417;DHT22;703;51.162;13.574;2022-07-06T13:12:50;23.30;99.90
1417;DHT22;703;51.162;13.574;2022-07-06T13:15:16;24.40;99.90
1417;DHT22;703;51.162;13.574;2022-07-06T13:17:42;23.50;99.90
1417;DHT22;703;51.162;13.574;2022-07-06T13:20:10;23.80;99.90
1417;DHT22;703;51.162;13.574;2022-07-06T13:22:37;23.90;99.90
1417;DHT22;703;51.162;13.574;2022-07-06T13:25:03;23.60;99.90
1417;DHT22;703;51.162;13.574;2022-07-06T13:27:29;24.10;99.90
1417;DHT22;703;51.162;13.574;2022-07-06T13:29:55;24.90;99.90
1417;DHT22;703;51.162;13.574;2022-07-06T13:32:20;25.00;99.90
1417;DHT22;703;51.162;13.574;2022-07-06T13:34:47;24.20;99.90
1417;DHT22;703;51.162;13.574;2022-07-06T13:37:12;24.20;99.90
1417;DHT22;703;51.162;13.574;2022-07-06T13:39:38;23.60;99.90
1417;DHT22;703;51.162;13.574;2022-07-06T13:42:04;23.40;99.90
1417;DHT22;703;51.162;13.574;2022-07-06T13:44:29;22.80;99.90
1417;DHT22;703;51.162;13.574;2022-07-06T13:46:55;22.20;99.90
1417;DHT22;703;51.162;13.574;2022-07-06T13:49:20;22.80;99.90
1417;DHT22;703;51.162;13.574;2022-07-06T13:51:46;24.30;99.90
1417;DHT22;703;51.162;13.574;2022-07-06T13:54:12;24.60;99.90
1417;DHT22;703;51.162;13.574;2022-07-06T13:56:39;24.10;99.90
1417;DHT22;703;51.162;13.574;2022-07-06T13:59:06;24.10;99.90
1417;DHT22;703;51.162;13.574;2022-07-06T14:01:33;23.70;99.90
1417;DHT22;703;51.162;13.574;2022-07-06T14:03:58;23.30;99.90
1417;DHT22;703;51.162;13.574;2022-07-06T14:06:24;23.90;99.90
1417;DHT22;703;51.162;13.574;2022-07-06T14:08:49;24.30;99.90
1417;DHT22;703;51.162;13.574;2022-07-06T14:11:15;24.60;99.90
1417;DHT22;703;51.162;13.574;2022-07-06T14:13:41;24.60;99.90
1417;DHT22;703;51.162;13.574;2022-07-06T14:16:06;24.70;99.90
1417;DHT22;703;51.162;13.574;2022-07-06T14:18:33;25.20;99.90
1417;DHT22;703;51.162;13.574;2022-07-06T14:20:59;24.80;99.90
1417;DHT22;703;51.162;13.574;2022-07-06T14:23:26;25.20;99.90
1417;DHT22;703;51.162;13.574;2022-07-06T14:25:51;24.60;99.90
1417;DHT22;703;51.162;13.574;2022-07-06T14:28:18;25.10;99.90
1417;DHT22;703;51.162;13.574;2022-07-06T14:30:45;25.70;99.90
1417;DHT22;703;51.162;13.574;2022-07-06T14:33:11;25.60;99.90
1417;DHT22;703;51.162;13.574;2022-07-06T14:35:43;25.00;99.90
1417;DHT22;703;51.162;13.574;2022-07-06T14:38:09;26.10;99.90
1417;DHT22;703;51.162;13.574;2022-07-06T14:40:36;25.80;99.90
1417;DHT22;703;51.162;13.574;2022-07-06T14:43:01;25.80;99.90
1417;DHT22;703;51.162;13.574;2022-07-06T14:45:27;26.00;99.90
1417;DHT22;703;51.162;13.574;2022-07-06T14:47:52;25.30;99.90
1417;DHT22;703;51.162;13.574;2022-07-06T14:50:19;26.00;99.90
1417;DHT22;703;51.162;13.574;2022-07-06T14:52:45;25.60;99.90
1417;DHT22;703;51.162;13.574;2022-07-06T14:55:10;25.20;99.90
1417;DHT22;703;51.162;13.574;2022-07-06T14:57:36;25.50;99.90
1417;DHT22;703;51.162;13.574;2022-07-06T15:00:03;24.60;99.90
1417;DHT22;703;51.162;13.574;2022-07-06T15:02:29;24.80;99.90
1417;DHT22;703;51.162;13.574;2022-07-06T15:04:55;25.30;99.90
1417;DHT22;703;51.162;13.574;2022-07-06T15:07:20;25.50;99.90
1417;DHT22;703;51.162;13.574;2022-07-06T15:09:46;24.20;99.90
1417;DHT22;703;51.162;13.574;2022-07-06T15:12:12;23.30;99.90
1417;DHT22;703;51.162;13.574;2022-07-06T15:14:37;23.50;99.90
1417;DHT22;703;51.162;13.574;2022-07-06T15:17:03;23.90;99.90
1417;DHT22;703;51.162;13.574;2022-07-06T15:19:29;23.80;99.90
1417;DHT22;703;51.162;13.574;2022-07-06T15:21:54;23.50;99.90
1417;DHT22;703;51.162;13.574;2022-07-06T15:24:20;23.70;99.90
1417;DHT22;703;51.162;13.574;2022-07-06T15:26:46;23.80;99.90
1417;DHT22;703;51.162;13.574;2022-07-06T15:29:12;24.30;99.90
1417;DHT22;703;51.162;13.574;2022-07-06T15:31:37;24.40;99.90
1417;DHT22;703;51.162;13.574;2022-07-06T15:34:03;23.30;99.90
1417;DHT22;703;51.162;13.574;2022-07-06T15:36:29;23.30;99.90
1417;DHT22;703;51.162;13.574;2022-07-06T15:38:54;22.90;99.90
1417;DHT22;703;51.162;13.574;2022-07-06T15:41:20;23.60;99.90
1417;DHT22;703;51.162;13.574;2022-07-06T15:43:45;22.90;99.90
1417;DHT22;703;51.162;13.574;2022-07-06T15:46:11;22.90;99.90
1417;DHT22;703;51.162;13.574;2022-07-06T15:48:37;22.90;99.90
1417;DHT22;703;51.162;13.574;2022-07-06T15:51:03;23.80;99.90
1417;DHT22;703;51.162;13.574;2022-07-06T15:53:28;24.00;99.90
1417;DHT22;703;51.162;13.574;2022-07-06T15:55:55;23.90;99.90
1417;DHT22;703;51.162;13.574;2022-07-06T15:58:21;23.90;99.90
1417;DHT22;703;51.162;13.574;2022-07-06T16:00:47;23.80;99.90
1417;DHT22;703;51.162;13.574;2022-07-06T16:03:12;23.60;99.90
1417;DHT22;703;51.162;13.574;2022-07-06T16:05:38;23.50;99.90
1417;DHT22;703;51.162;13.574;2022-07-06T16:08:04;23.10;99.90
1417;DHT22;703;51.162;13.574;2022-07-06T16:10:29;22.70;99.90
1417;DHT22;703;51.162;13.574;2022-07-06T16:12:55;24.70;99.90
1417;DHT22;703;51.162;13.574;2022-07-06T16:15:21;23.00;99.90
1417;DHT22;703;51.162;13.574;2022-07-06T16:17:47;23.60;99.90
1417;DHT22;703;51.162;13.574;2022-07-06T16:20:13;23.50;99.90
1417;DHT22;703;51.162;13.574;2022-07-06T16:22:43;23.30;99.90
1417;DHT22;703;51.162;13.574;2022-07-06T16:25:09;23.70;99.90
1417;DHT22;703;51.162;13.574;2022-07-06T16:27:36;23.50;99.90
1417;DHT22;703;51.162;13.574;2022-07-06T16:30:03;23.10;99.90
1417;DHT22;703;51.162;13.574;2022-07-06T16:32:29;23.20;99.90
1417;DHT22;703;51.162;13.574;2022-07-06T16:34:58;23.10;99.90